DLH85 EDDK-EHAM
Flight info
| Callsign | DLH85 |
|---|---|
| Flight time | N/A |
| Altitude | 22000 |
| Route | NVO3W NVO Y868 SOGRI L608 BUB Y28 HELEN |
| Aircraft | A320/M-SDE3FGHIRWY/LB1 |
Departure
| Time | 2026-04-26 12:13 |
|---|---|
| Airport | Cologne Bonn Airport (EDDK) |
Arrival
| Time | N/A |
|---|---|
| Airport | Amsterdam Airport Schiphol (EHAM) |
| Time | Latitude | Longitude | Altitude | Speed | Heading |
|---|---|---|---|---|---|
| 2026-04-26 11:12 | 50.87769 | 7.12401 | 235 ft | 0 kts | 288° |
| 2026-04-26 12:02 | 50.87769 | 7.12400 | 232 ft | 0 kts | 288° |
| 2026-04-26 12:02 | 50.87769 | 7.12399 | 232 ft | 0 kts | 288° |
| 2026-04-26 12:03 | 50.87765 | 7.12422 | 232 ft | 2 kts | 288° |
| 2026-04-26 12:03 | 50.87759 | 7.12448 | 236 ft | 2 kts | 288° |
| 2026-04-26 12:03 | 50.87754 | 7.12473 | 235 ft | 2 kts | 288° |
| 2026-04-26 12:03 | 50.87750 | 7.12494 | 234 ft | 3 kts | 300° |
| 2026-04-26 12:04 | 50.87739 | 7.12516 | 234 ft | 3 kts | 336° |
| 2026-04-26 12:04 | 50.87722 | 7.12522 | 232 ft | 3 kts | 12° |
| 2026-04-26 12:04 | 50.87718 | 7.12522 | 232 ft | 0 kts | 19° |
| 2026-04-26 12:06 | 50.87735 | 7.12530 | 233 ft | 6 kts | 19° |
| 2026-04-26 12:06 | 50.87769 | 7.12549 | 233 ft | 5 kts | 19° |
| 2026-04-26 12:06 | 50.87796 | 7.12563 | 232 ft | 4 kts | 19° |
| 2026-04-26 12:07 | 50.87823 | 7.12578 | 232 ft | 7 kts | 19° |
| 2026-04-26 12:07 | 50.87872 | 7.12604 | 233 ft | 7 kts | 19° |
| 2026-04-26 12:07 | 50.87912 | 7.12625 | 232 ft | 5 kts | 19° |
| 2026-04-26 12:07 | 50.87947 | 7.12649 | 232 ft | 5 kts | 32° |
| 2026-04-26 12:08 | 50.87970 | 7.12686 | 235 ft | 3 kts | 49° |
| 2026-04-26 12:08 | 50.87973 | 7.12692 | 234 ft | 0 kts | 49° |
| 2026-04-26 12:08 | 50.87996 | 7.12748 | 239 ft | 7 kts | 71° |
| 2026-04-26 12:08 | 50.87997 | 7.12751 | 239 ft | 0 kts | 74° |
| 2026-04-26 12:12 | 50.88005 | 7.12803 | 238 ft | 10 kts | 78° |
| 2026-04-26 12:12 | 50.88014 | 7.12922 | 239 ft | 10 kts | 91° |
| 2026-04-26 12:12 | 50.87937 | 7.13064 | 239 ft | 43 kts | 138° |
| 2026-04-26 12:12 | 50.87701 | 7.13409 | 239 ft | 94 kts | 137° |
| 2026-04-26 12:13 | 50.86790 | 7.14732 | 295 ft | 164 kts | 136° |
| 2026-04-26 12:13 | 50.85926 | 7.15947 | 957 ft | 165 kts | 138° |
| 2026-04-26 12:13 | 50.85131 | 7.17231 | 1779 ft | 165 kts | 116° |
| 2026-04-26 12:13 | 50.84955 | 7.19087 | 2253 ft | 180 kts | 77° |
| 2026-04-26 12:14 | 50.85495 | 7.20922 | 2821 ft | 191 kts | 57° |
| 2026-04-26 12:14 | 50.86316 | 7.22729 | 3276 ft | 214 kts | 52° |
| 2026-04-26 12:14 | 50.87386 | 7.24543 | 3772 ft | 239 kts | 35° |
| 2026-04-26 12:14 | 50.88979 | 7.25553 | 4392 ft | 258 kts | 5° |
| 2026-04-26 12:15 | 50.90746 | 7.25052 | 5398 ft | 265 kts | 332° |
| 2026-04-26 12:15 | 50.92096 | 7.23085 | 6423 ft | 269 kts | 300° |
| 2026-04-26 12:15 | 50.92540 | 7.20211 | 7384 ft | 275 kts | 267° |
| 2026-04-26 12:15 | 50.92136 | 7.17228 | 8368 ft | 280 kts | 257° |
| 2026-04-26 12:16 | 50.91601 | 7.14251 | 9369 ft | 282 kts | 256° |
| 2026-04-26 12:16 | 50.91039 | 7.11247 | 10046 ft | 287 kts | 256° |
| 2026-04-26 12:16 | 50.90465 | 7.08216 | 10322 ft | 287 kts | 256° |
| 2026-04-26 12:16 | 50.89875 | 7.05060 | 10591 ft | 312 kts | 256° |
| 2026-04-26 12:17 | 50.89243 | 7.01616 | 10866 ft | 338 kts | 256° |
| 2026-04-26 12:17 | 50.88575 | 6.97951 | 11129 ft | 352 kts | 256° |
| 2026-04-26 12:17 | 50.87899 | 6.94243 | 11401 ft | 357 kts | 256° |
| 2026-04-26 12:17 | 50.87208 | 6.90459 | 11668 ft | 359 kts | 256° |
| 2026-04-26 12:18 | 50.86512 | 6.86660 | 11943 ft | 360 kts | 256° |
| 2026-04-26 12:18 | 50.85802 | 6.82791 | 12218 ft | 361 kts | 256° |
| 2026-04-26 12:18 | 50.85106 | 6.79017 | 12496 ft | 363 kts | 256° |
| 2026-04-26 12:18 | 50.84386 | 6.75126 | 12778 ft | 364 kts | 256° |
| 2026-04-26 12:19 | 50.83671 | 6.71273 | 13056 ft | 366 kts | 255° |
| 2026-04-26 12:19 | 50.82965 | 6.67458 | 13338 ft | 367 kts | 255° |